Prairie City, Oregon
Current Conditions -  °F | °C
As of 1:35 AM on Saturday 25 Oct 2014 (Local Time) from KGCD Reporting Station
Clear Clear  
Wind Chill: 53°   Ceiling: Unl
Heat Index: 53°   Visibility: 10mi
Dew Point: 42°   Wind: 5mph
Humidity: 66%   Direction: 100°E
Pressure: 29.82"   Gusts: NA
Location:  44.46°N, 118.71°W
Report Text: KGCD 250835Z AUTO 10004KT 10SM CLR 12/06 A2982 RMK AO2 T01160055
Loading
Personal Weather Stations






























Interactive Weather Map
Tropical Storm Tracking
New forecast layout! Learn more

10-Day Weather Forecast

Advertisements
Track Severe Weather on mobile